createdAt,value
2019-02-25T06:19:13.364Z,1033.26
2019-02-25T06:20:13.339Z,1033.18
2019-02-25T06:21:13.370Z,1033.14
2019-02-25T06:22:13.345Z,1033.17
2019-02-25T06:23:13.328Z,1033.16
2019-02-25T06:24:13.291Z,1033.15
2019-02-25T06:25:13.309Z,1033.18
2019-02-25T06:26:15.814Z,1033.22
2019-02-25T06:27:13.279Z,1033.20
2019-02-25T06:28:13.257Z,1033.26
2019-02-25T06:29:13.244Z,1033.25
2019-02-25T06:30:13.300Z,1033.28
2019-02-25T06:31:13.221Z,1033.23
2019-02-25T06:32:13.250Z,1033.25
2019-02-25T06:33:13.196Z,1033.30
2019-02-25T06:34:13.202Z,1033.28
2019-02-25T06:35:13.212Z,1033.22
2019-02-25T06:36:13.204Z,1033.25
2019-02-25T06:37:13.184Z,1033.27
2019-02-25T06:38:13.149Z,1033.28
2019-02-25T06:39:13.145Z,1033.24
2019-02-25T06:40:15.336Z,1033.27
2019-02-25T06:41:13.112Z,1033.26
2019-02-25T06:42:13.121Z,1033.21
2019-02-25T06:43:20.351Z,1033.26
2019-02-25T06:44:13.083Z,1033.24
2019-02-25T06:45:13.080Z,1033.26
2019-02-25T06:46:13.063Z,1033.25
2019-02-25T06:47:13.081Z,1033.31
2019-02-25T06:48:13.037Z,1033.30
2019-02-25T06:49:13.029Z,1033.29
2019-02-25T06:50:13.024Z,1033.28
2019-02-25T06:51:13.009Z,1033.27
2019-02-25T06:52:13.007Z,1033.34
2019-02-25T06:53:13.004Z,1033.38
2019-02-25T06:54:12.978Z,1033.33
2019-02-25T06:55:12.965Z,1033.34
2019-02-25T06:56:12.970Z,1033.34
2019-02-25T06:57:12.944Z,1033.30
2019-02-25T06:58:12.961Z,1033.30
2019-02-25T06:59:12.921Z,1033.27
2019-02-25T07:00:12.924Z,1033.35
2019-02-25T07:01:12.902Z,1033.37
2019-02-25T07:02:12.892Z,1033.40
2019-02-25T07:03:12.909Z,1033.39
2019-02-25T07:04:12.877Z,1033.47
2019-02-25T07:05:12.860Z,1033.44
2019-02-25T07:06:12.848Z,1033.39
2019-02-25T07:07:12.838Z,1033.38
2019-02-25T07:08:12.854Z,1033.36
2019-02-25T07:09:12.822Z,1033.37
2019-02-25T07:10:12.821Z,1033.36
2019-02-25T07:11:12.803Z,1033.41
2019-02-25T07:12:12.791Z,1033.34
2019-02-25T07:13:12.797Z,1033.44
2019-02-25T07:14:12.830Z,1033.44
2019-02-25T07:15:12.760Z,1033.46
2019-02-25T07:16:12.750Z,1033.42
2019-02-25T07:17:12.742Z,1033.43
2019-02-25T07:18:12.756Z,1033.46
2019-02-25T07:19:12.711Z,1033.42
2019-02-25T07:20:12.706Z,1033.39
2019-02-25T07:21:12.706Z,1033.42
2019-02-25T07:22:12.691Z,1033.43
2019-02-25T07:23:12.704Z,1033.44
2019-02-25T07:24:12.658Z,1033.43
2019-02-25T07:25:12.655Z,1033.47
2019-02-25T07:26:12.646Z,1033.41
2019-02-25T07:27:12.632Z,1033.39
2019-02-25T07:28:12.656Z,1033.37
2019-02-25T07:29:12.605Z,1033.34
2019-02-25T07:30:12.605Z,1033.30
2019-02-25T07:31:12.597Z,1033.26
2019-02-25T07:32:12.573Z,1033.26
2019-02-25T07:33:12.587Z,1033.25
2019-02-25T07:34:12.564Z,1033.29
2019-02-25T07:35:12.546Z,1033.28
2019-02-25T07:36:12.533Z,1033.26
2019-02-25T07:37:12.523Z,1033.29
2019-02-25T07:38:12.533Z,1033.24
2019-02-25T07:39:12.503Z,1033.25
2019-02-25T07:40:12.506Z,1033.23
2019-02-25T07:41:12.482Z,1033.23
2019-02-25T07:42:12.473Z,1033.20
2019-02-25T07:43:12.493Z,1033.21
2019-02-25T07:44:12.452Z,1033.17
2019-02-25T07:45:12.454Z,1033.20
2019-02-25T07:46:12.434Z,1033.24
2019-02-25T07:47:12.419Z,1033.27
2019-02-25T07:48:12.427Z,1033.22
2019-02-25T07:49:12.399Z,1033.24
2019-02-25T07:50:12.403Z,1033.20
2019-02-25T07:51:12.390Z,1033.18
2019-02-25T07:52:12.375Z,1033.16
2019-02-25T07:53:12.398Z,1033.12
2019-02-25T07:54:12.349Z,1033.13
2019-02-25T07:55:12.345Z,1033.13
2019-02-25T07:56:12.338Z,1033.13
2019-02-25T07:57:12.320Z,1033.14
2019-02-25T07:58:12.331Z,1033.18
2019-02-25T07:59:12.296Z,1033.19
2019-02-25T08:00:12.289Z,1033.19
2019-02-25T08:01:12.277Z,1033.22
2019-02-25T08:02:12.287Z,1033.23
2019-02-25T08:03:12.284Z,1033.24
2019-02-25T08:04:12.253Z,1033.21
2019-02-25T08:05:12.236Z,1033.21
2019-02-25T08:06:12.225Z,1033.24
2019-02-25T08:07:12.214Z,1033.22
2019-02-25T08:08:12.226Z,1033.24
2019-02-25T08:09:12.209Z,1033.26
2019-02-25T08:10:12.204Z,1033.21
2019-02-25T08:11:12.181Z,1033.27
2019-02-25T08:12:12.162Z,1033.29
2019-02-25T08:13:12.173Z,1033.32
2019-02-25T08:14:12.145Z,1033.35
2019-02-25T08:15:12.143Z,1033.33
2019-02-25T08:16:12.128Z,1033.32
2019-02-25T08:17:12.124Z,1033.32
2019-02-25T08:18:12.130Z,1033.34
2019-02-25T08:19:12.094Z,1033.37
2019-02-25T08:20:12.081Z,1033.39
2019-02-25T08:21:12.074Z,1033.36
2019-02-25T08:22:12.067Z,1033.39
2019-02-25T08:23:12.081Z,1033.46
2019-02-25T08:24:12.042Z,1033.45
2019-02-25T08:25:12.027Z,1033.44
2019-02-25T08:26:12.033Z,1033.35
2019-02-25T08:27:12.005Z,1033.34
2019-02-25T08:28:12.003Z,1033.37
2019-02-25T08:29:12.345Z,1033.37
2019-02-25T08:30:12.028Z,1033.41
2019-02-25T08:31:11.972Z,1033.40
2019-02-25T08:32:11.984Z,1033.42
2019-02-25T08:33:11.942Z,1033.42
2019-02-25T08:34:18.328Z,1033.41
2019-02-25T08:35:12.918Z,1033.43
2019-02-25T08:36:11.909Z,1033.42
2019-02-25T08:37:11.898Z,1033.43
2019-02-25T08:38:11.893Z,1033.49
2019-02-25T08:39:11.897Z,1033.44
2019-02-25T08:40:11.874Z,1033.45
2019-02-25T08:41:11.853Z,1033.43
2019-02-25T08:42:11.842Z,1033.47
2019-02-25T08:43:11.840Z,1033.50
2019-02-25T08:44:11.844Z,1033.50
2019-02-25T08:45:11.815Z,1033.52
2019-02-25T08:46:11.822Z,1033.54
2019-02-25T08:47:11.788Z,1033.53
2019-02-25T08:48:11.778Z,1033.52
2019-02-25T08:49:11.785Z,1033.59
2019-02-25T08:50:11.759Z,1033.53
2019-02-25T08:51:11.752Z,1033.57
2019-02-25T08:52:11.751Z,1033.59
2019-02-25T08:53:11.718Z,1033.61
2019-02-25T08:54:11.730Z,1033.60
2019-02-25T08:55:11.701Z,1033.56
2019-02-25T08:56:11.686Z,1033.58
2019-02-25T08:57:11.680Z,1033.56
2019-02-25T08:58:11.668Z,1033.55
2019-02-25T08:59:11.705Z,1033.52
2019-02-25T09:00:11.643Z,1033.56
2019-02-25T09:01:11.634Z,1033.58
2019-02-25T09:02:11.619Z,1033.58
2019-02-25T09:03:11.613Z,1033.58
2019-02-25T09:04:11.621Z,1033.50
2019-02-25T09:05:11.591Z,1033.45
2019-02-25T09:06:11.585Z,1033.43
2019-02-25T09:07:11.567Z,1033.47
2019-02-25T09:08:11.558Z,1033.42
2019-02-25T09:09:11.573Z,1033.44
2019-02-25T09:10:13.436Z,1033.47
2019-02-25T09:11:14.147Z,1033.46
2019-02-25T09:12:11.513Z,1033.46
2019-02-25T09:13:11.509Z,1033.46
2019-02-25T09:14:11.516Z,1033.50
2019-02-25T09:15:11.487Z,1033.50
2019-02-25T09:16:11.478Z,1033.52
2019-02-25T09:17:11.475Z,1033.54
2019-02-25T09:18:11.448Z,1033.51
2019-02-25T09:19:11.469Z,1033.55
2019-02-25T09:20:11.447Z,1033.51
2019-02-25T09:21:11.426Z,1033.58
2019-02-25T09:22:11.410Z,1033.56
2019-02-25T09:23:11.395Z,1033.57
2019-02-25T09:24:11.414Z,1033.55
2019-02-25T09:25:11.373Z,1033.53
2019-02-25T09:26:11.927Z,1033.57
2019-02-25T09:27:11.355Z,1033.59
2019-02-25T09:28:11.344Z,1033.50
2019-02-25T09:29:11.356Z,1033.55
2019-02-25T09:30:11.325Z,1033.52
2019-02-25T09:31:11.311Z,1033.53
2019-02-25T09:32:11.305Z,1033.52
2019-02-25T09:33:11.290Z,1033.60
2019-02-25T09:34:11.843Z,1033.54
2019-02-25T09:35:11.267Z,1033.59
2019-02-25T09:36:11.256Z,1033.59
2019-02-25T09:37:11.243Z,1033.61
2019-02-25T09:38:11.242Z,1033.63
2019-02-25T09:39:11.271Z,1033.64
2019-02-25T09:40:11.211Z,1033.61
2019-02-25T09:41:11.200Z,1033.55
2019-02-25T09:42:11.189Z,1033.62
2019-02-25T09:43:11.181Z,1033.61
2019-02-25T09:44:11.202Z,1033.65
2019-02-25T09:45:11.166Z,1033.66
2019-02-25T09:46:11.148Z,1033.60
2019-02-25T09:47:11.139Z,1033.66
2019-02-25T09:48:11.128Z,1033.64
2019-02-25T09:49:11.136Z,1033.60
2019-02-25T09:50:11.105Z,1033.64
2019-02-25T09:51:11.441Z,1033.65
2019-02-25T09:52:11.084Z,1033.66
2019-02-25T09:53:11.073Z,1033.67
2019-02-25T09:54:11.088Z,1033.62
2019-02-25T09:55:11.050Z,1033.65
2019-02-25T09:56:11.042Z,1033.73
2019-02-25T09:57:11.042Z,1033.76
2019-02-25T09:58:11.019Z,1033.74
2019-02-25T09:59:11.031Z,1033.75
2019-02-25T10:00:10.999Z,1033.77
2019-02-25T10:01:10.988Z,1033.71
2019-02-25T10:02:10.992Z,1033.77
2019-02-25T10:03:10.981Z,1033.76
2019-02-25T10:04:10.978Z,1033.76
2019-02-25T10:05:10.946Z,1033.74
2019-02-25T10:06:12.921Z,1033.78
2019-02-25T10:07:10.925Z,1033.79
2019-02-25T10:08:10.921Z,1033.79
2019-02-25T10:09:10.925Z,1033.84
2019-02-25T10:10:10.912Z,1033.81
2019-02-25T10:11:10.883Z,1033.80
2019-02-25T10:12:10.875Z,1033.82
2019-02-25T10:13:10.861Z,1033.86
2019-02-25T10:14:10.858Z,1033.90
2019-02-25T10:15:10.873Z,1033.80
2019-02-25T10:16:10.832Z,1033.84
2019-02-25T10:17:10.823Z,1033.87
2019-02-25T10:18:10.835Z,1033.84
2019-02-25T10:19:10.800Z,1033.88
2019-02-25T10:20:10.808Z,1033.87
2019-02-25T10:21:10.796Z,1033.87
2019-02-25T10:22:10.768Z,1033.88
2019-02-25T10:23:10.759Z,1033.84
2019-02-25T10:24:10.749Z,1033.83
2019-02-25T10:25:10.756Z,1033.83
2019-02-25T10:26:10.728Z,1033.85
2019-02-25T10:27:10.731Z,1033.89
2019-02-25T10:28:10.706Z,1033.89
2019-02-25T10:29:10.697Z,1033.86
2019-02-25T10:30:10.704Z,1033.90
2019-02-25T10:31:11.483Z,1033.85
2019-02-25T10:32:10.664Z,1033.87
2019-02-25T10:33:10.670Z,1033.84
2019-02-25T10:34:10.651Z,1033.92
2019-02-25T10:35:10.663Z,1033.94
2019-02-25T10:36:10.623Z,1033.90
2019-02-25T10:37:11.068Z,1033.97
2019-02-25T10:38:10.603Z,1034.01
2019-02-25T10:39:12.620Z,1033.97
2019-02-25T10:40:10.605Z,1033.97
2019-02-25T10:41:10.573Z,1033.99
2019-02-25T10:42:10.562Z,1033.95
2019-02-25T10:43:10.551Z,1033.96
2019-02-25T10:44:10.555Z,1033.91
2019-02-25T10:45:11.055Z,1033.95
2019-02-25T10:46:11.717Z,1033.95
2019-02-25T10:47:11.032Z,1033.93
2019-02-25T10:48:10.501Z,1033.94
2019-02-25T10:49:11.638Z,1033.99
2019-02-25T10:50:10.505Z,1033.99
2019-02-25T10:51:11.554Z,1033.99
2019-02-25T10:52:11.222Z,1033.96
2019-02-25T10:53:10.996Z,1033.95
2019-02-25T10:54:10.439Z,1033.94
2019-02-25T10:55:10.450Z,1033.91
2019-02-25T10:56:10.418Z,1033.93
2019-02-25T10:57:10.423Z,1033.96
2019-02-25T10:58:10.401Z,1033.92
2019-02-25T10:59:10.390Z,1033.86
2019-02-25T11:00:11.735Z,1033.82
2019-02-25T11:01:13.479Z,1033.82
2019-02-25T11:02:13.183Z,1033.80
2019-02-25T11:03:12.371Z,1033.82
2019-02-25T11:04:10.341Z,1033.75
2019-02-25T11:05:10.348Z,1033.78
2019-02-25T11:06:10.319Z,1033.72
2019-02-25T11:07:10.309Z,1033.69
2019-02-25T11:08:11.642Z,1033.62
2019-02-25T11:09:11.064Z,1033.69
2019-02-25T11:10:11.933Z,1033.67
2019-02-25T11:11:10.282Z,1033.65
2019-02-25T11:12:10.260Z,1033.64
2019-02-25T11:13:10.251Z,1033.62
2019-02-25T11:14:10.239Z,1033.60
2019-02-25T11:15:11.645Z,1033.59
2019-02-25T11:16:11.814Z,1033.60
2019-02-25T11:17:10.218Z,1033.63
2019-02-25T11:18:10.210Z,1033.66
2019-02-25T11:19:10.189Z,1033.63
2019-02-25T11:20:10.214Z,1033.57
2019-02-25T11:21:10.657Z,1033.59
2019-02-25T11:22:12.061Z,1033.57
2019-02-25T11:23:12.311Z,1033.58
2019-02-25T11:24:10.139Z,1033.60
2019-02-25T11:25:10.128Z,1033.56
2019-02-25T11:26:10.142Z,1033.52
2019-02-25T11:27:10.128Z,1033.54
2019-02-25T11:28:22.621Z,1033.58
2019-02-25T11:29:11.822Z,1033.56
2019-02-25T11:30:11.963Z,1033.59
2019-02-25T11:31:10.110Z,1033.53
2019-02-25T11:32:10.059Z,1033.54
2019-02-25T11:33:10.049Z,1033.51
2019-02-25T11:34:10.047Z,1033.54
2019-02-25T11:35:10.767Z,1033.51
2019-02-25T11:36:10.629Z,1033.47
2019-02-25T11:37:10.010Z,1033.45
2019-02-25T11:38:10.006Z,1033.44
2019-02-25T11:39:09.993Z,1033.44
2019-02-25T11:40:09.987Z,1033.46
2019-02-25T11:41:11.300Z,1033.44
2019-02-25T11:42:10.912Z,1033.44
2019-02-25T11:43:10.577Z,1033.42
2019-02-25T11:44:09.941Z,1033.43
2019-02-25T11:45:09.932Z,1033.43
2019-02-25T11:46:09.956Z,1033.46
2019-02-25T11:47:09.912Z,1033.42
2019-02-25T11:48:09.907Z,1033.44
2019-02-25T11:49:09.895Z,1033.36
2019-02-25T11:50:09.882Z,1033.21
2019-02-25T11:51:09.891Z,1033.04
2019-02-25T11:52:09.877Z,1032.95
2019-02-25T11:53:09.857Z,1032.95
2019-02-25T11:54:10.167Z,1033.01
2019-02-25T11:55:09.831Z,1033.06
2019-02-25T11:56:09.840Z,1033.16
2019-02-25T11:57:09.812Z,1033.25
2019-02-25T11:58:09.814Z,1033.27
2019-02-25T11:59:09.792Z,1033.23
2019-02-25T12:00:09.786Z,1033.27
2019-02-25T12:01:09.797Z,1033.26
2019-02-25T12:02:09.762Z,1033.14
2019-02-25T12:03:09.751Z,1033.14
2019-02-25T12:04:09.751Z,1033.18
2019-02-25T12:05:09.731Z,1033.15
2019-02-25T12:06:09.749Z,1033.21
2019-02-25T12:07:09.710Z,1033.14
2019-02-25T12:08:09.701Z,1033.18
2019-02-25T12:09:09.690Z,1033.18
2019-02-25T12:10:09.776Z,1033.15
2019-02-25T12:11:09.700Z,1033.17
2019-02-25T12:12:09.662Z,1033.17
2019-02-25T12:13:09.654Z,1033.17
2019-02-25T12:14:09.650Z,1033.12
2019-02-25T12:15:09.631Z,1033.17
2019-02-25T12:16:09.658Z,1033.15
2019-02-25T12:17:09.612Z,1033.11
2019-02-25T12:18:09.600Z,1033.09
2019-02-25T12:19:17.751Z,1033.09
2019-02-25T12:20:10.579Z,1033.05
2019-02-25T12:21:09.601Z,1033.07
2019-02-25T12:22:09.568Z,1033.06
2019-02-25T12:23:09.551Z,1032.98
2019-02-25T12:24:09.543Z,1033.00
2019-02-25T12:25:09.534Z,1032.95
2019-02-25T12:26:09.542Z,1032.94
2019-02-25T12:27:09.511Z,1032.90
2019-02-25T12:28:09.511Z,1032.89
2019-02-25T12:29:11.026Z,1032.91
2019-02-25T12:30:09.483Z,1032.85
2019-02-25T12:31:09.499Z,1032.84
2019-02-25T12:32:09.470Z,1032.80
2019-02-25T12:33:09.453Z,1032.82
2019-02-25T12:34:09.451Z,1032.78
2019-02-25T12:35:09.432Z,1032.76
2019-02-25T12:36:09.441Z,1032.79
2019-02-25T12:37:09.415Z,1032.81
2019-02-25T12:38:09.404Z,1032.83
2019-02-25T12:39:09.399Z,1032.79
2019-02-25T12:40:09.390Z,1032.87
2019-02-25T12:41:09.408Z,1032.85
2019-02-25T12:42:09.360Z,1032.84
2019-02-25T12:43:09.352Z,1032.80
2019-02-25T12:44:09.355Z,1032.76
2019-02-25T12:45:09.334Z,1032.77
2019-02-25T12:46:09.335Z,1032.69
2019-02-25T12:47:09.330Z,1032.61
2019-02-25T12:48:09.301Z,1032.56
2019-02-25T12:49:09.291Z,1032.49
2019-02-25T12:50:09.284Z,1032.45
2019-02-25T12:51:09.271Z,1032.48
2019-02-25T12:52:09.300Z,1032.41
2019-02-25T12:53:09.252Z,1032.38
2019-02-25T12:54:09.243Z,1032.37
2019-02-25T12:55:09.237Z,1032.33
2019-02-25T12:56:09.221Z,1032.30
2019-02-25T12:57:09.239Z,1032.21
2019-02-25T12:58:09.219Z,1032.22
2019-02-25T12:59:09.188Z,1032.18
2019-02-25T13:00:09.179Z,1032.18
2019-02-25T13:01:09.172Z,1032.17
2019-02-25T13:02:09.188Z,1032.17
2019-02-25T13:03:09.159Z,1032.18
2019-02-25T13:04:09.151Z,1032.10
2019-02-25T13:05:09.127Z,1032.09
2019-02-25T13:06:09.116Z,1032.06
2019-02-25T13:07:09.127Z,1032.09
2019-02-25T13:08:09.094Z,1032.03
2019-02-25T13:09:09.087Z,1031.95
2019-02-25T13:10:09.092Z,1031.98
2019-02-25T13:11:09.063Z,1031.95
2019-02-25T13:12:09.075Z,1031.98
2019-02-25T13:13:09.050Z,1031.90
2019-02-25T13:14:09.032Z,1031.89
2019-02-25T13:15:13.254Z,1031.85
2019-02-25T13:16:09.023Z,1031.87
2019-02-25T13:17:09.021Z,1031.82
2019-02-25T13:18:08.988Z,1031.81
2019-02-25T13:19:08.982Z,1031.84
2019-02-25T13:20:08.971Z,1031.79
2019-02-25T13:21:08.957Z,1031.74
2019-02-25T13:22:08.982Z,1031.77
2019-02-25T13:23:08.939Z,1031.73
2019-02-25T13:24:09.917Z,1031.62
2019-02-25T13:25:10.572Z,1031.58
2019-02-25T13:26:08.906Z,1031.54
2019-02-25T13:27:11.052Z,1031.52
2019-02-25T13:28:08.889Z,1031.51
2019-02-25T13:29:08.881Z,1031.48
2019-02-25T13:30:08.861Z,1031.46
2019-02-25T13:31:10.178Z,1031.39
2019-02-25T13:32:08.867Z,1031.32
2019-02-25T13:33:08.829Z,1031.30
2019-02-25T13:34:08.824Z,1031.28
2019-02-25T13:35:08.817Z,1031.26
2019-02-25T13:36:08.797Z,1031.27
2019-02-25T13:37:08.805Z,1031.19
2019-02-25T13:38:08.780Z,1031.20
2019-02-25T13:39:08.773Z,1031.13
2019-02-25T13:40:08.760Z,1031.21
2019-02-25T13:41:08.751Z,1031.13
2019-02-25T13:42:08.907Z,1031.10
2019-02-25T13:43:08.720Z,1031.11
2019-02-25T13:44:08.710Z,1031.01
2019-02-25T13:45:08.699Z,1031.07
2019-02-25T13:46:08.691Z,1031.03
2019-02-25T13:47:08.735Z,1030.99
2019-02-25T13:48:08.672Z,1031.03
2019-02-25T13:49:08.660Z,1030.99
2019-02-25T13:50:08.648Z,1030.98
2019-02-25T13:51:08.637Z,1030.92
2019-02-25T13:52:08.642Z,1030.97
2019-02-25T13:53:08.612Z,1030.85
2019-02-25T13:54:08.601Z,1030.84
2019-02-25T13:55:08.594Z,1030.81
2019-02-25T13:56:08.597Z,1030.77
2019-02-25T13:57:08.629Z,1030.75
2019-02-25T13:58:08.611Z,1030.77
2019-02-25T13:59:08.583Z,1030.80
2019-02-25T14:00:08.568Z,1030.73
2019-02-25T14:01:08.584Z,1030.74
2019-02-25T14:02:08.626Z,1030.75
2019-02-25T14:03:08.534Z,1030.73
2019-02-25T14:04:08.499Z,1030.77
2019-02-25T14:05:08.511Z,1030.74
2019-02-25T14:06:08.477Z,1030.74
2019-02-25T14:07:08.489Z,1030.74
2019-02-25T14:08:08.468Z,1030.74
2019-02-25T14:09:08.447Z,1030.71
2019-02-25T14:10:08.455Z,1030.73
2019-02-25T14:11:08.424Z,1030.76
2019-02-25T14:12:08.457Z,1030.74
2019-02-25T14:13:08.417Z,1030.84
2019-02-25T14:14:08.410Z,1030.77
2019-02-25T14:15:08.379Z,1030.89
2019-02-25T14:16:08.376Z,1030.86
2019-02-25T14:17:08.394Z,1030.84
2019-02-25T14:18:08.356Z,1030.91
2019-02-25T14:19:08.338Z,1030.88
2019-02-25T14:20:08.355Z,1030.86
2019-02-25T14:21:08.328Z,1030.85
2019-02-25T14:22:08.370Z,1030.82
2019-02-25T14:23:08.312Z,1030.86
2019-02-25T14:24:08.308Z,1030.82
2019-02-25T14:25:08.302Z,1030.81
2019-02-25T14:26:08.268Z,1030.83
2019-02-25T14:27:08.252Z,1030.82
2019-02-25T14:28:08.341Z,1030.85
2019-02-25T14:29:08.234Z,1030.82
2019-02-25T14:30:09.404Z,1030.78
2019-02-25T14:31:08.254Z,1030.76
2019-02-25T14:32:10.900Z,1030.71
2019-02-25T14:33:08.218Z,1030.70
2019-02-25T14:34:08.189Z,1030.70
2019-02-25T14:35:08.190Z,1030.69
2019-02-25T14:36:10.665Z,1030.67
2019-02-25T14:37:08.147Z,1030.70
2019-02-25T14:38:10.366Z,1030.68
2019-02-25T14:39:08.142Z,1030.66
2019-02-25T14:40:08.660Z,1030.68
2019-02-25T14:41:09.045Z,1030.66
2019-02-25T14:42:09.381Z,1030.66
2019-02-25T14:43:10.527Z,1030.59
2019-02-25T14:44:08.110Z,1030.58
2019-02-25T14:45:09.424Z,1030.61
2019-02-25T14:46:11.810Z,1030.56
2019-02-25T14:47:19.798Z,1030.62
2019-02-25T14:48:10.733Z,1030.60
2019-02-25T14:49:08.233Z,1030.64
2019-02-25T14:50:08.023Z,1030.65
2019-02-25T14:51:08.826Z,1030.64
2019-02-25T14:52:07.994Z,1030.68
2019-02-25T14:53:09.166Z,1030.74
2019-02-25T14:54:07.965Z,1030.67
2019-02-25T14:55:09.416Z,1030.69
2019-02-25T14:56:07.955Z,1030.73
2019-02-25T14:57:07.939Z,1030.70
2019-02-25T14:58:09.825Z,1030.72
2019-02-25T14:59:12.435Z,1030.71
2019-02-25T15:00:08.903Z,1030.77
2019-02-25T15:01:07.894Z,1030.75
2019-02-25T15:02:08.688Z,1030.76
2019-02-25T15:03:07.893Z,1030.70
2019-02-25T15:04:07.870Z,1030.73
2019-02-25T15:05:07.853Z,1030.75
2019-02-25T15:06:07.838Z,1030.75
2019-02-25T15:07:08.635Z,1030.72
2019-02-25T15:08:07.839Z,1030.73
2019-02-25T15:09:10.387Z,1030.72
2019-02-25T15:10:08.472Z,1030.70
2019-02-25T15:11:09.234Z,1030.71
2019-02-25T15:12:11.055Z,1030.74
2019-02-25T15:13:08.847Z,1030.75
2019-02-25T15:14:08.569Z,1030.72
2019-02-25T15:15:08.847Z,1030.75
2019-02-25T15:16:07.735Z,1030.75
2019-02-25T15:17:08.413Z,1030.71
2019-02-25T15:18:07.746Z,1030.71
2019-02-25T15:19:07.702Z,1030.70
2019-02-25T15:20:07.697Z,1030.72
2019-02-25T15:21:09.145Z,1030.74
2019-02-25T15:22:07.674Z,1030.75
2019-02-25T15:23:07.687Z,1030.70
2019-02-25T15:24:08.494Z,1030.72
2019-02-25T15:25:07.639Z,1030.74
2019-02-25T15:26:07.647Z,1030.75
2019-02-25T15:27:09.320Z,1030.74
2019-02-25T15:28:11.094Z,1030.77
2019-02-25T15:29:09.267Z,1030.78
2019-02-25T15:30:07.604Z,1030.85
2019-02-25T15:31:09.469Z,1030.82
2019-02-25T15:32:07.582Z,1030.84
2019-02-25T15:33:07.605Z,1030.89
2019-02-25T15:34:08.938Z,1030.89
2019-02-25T15:35:07.531Z,1030.86
2019-02-25T15:36:07.520Z,1030.92
2019-02-25T15:37:09.359Z,1030.95
2019-02-25T15:38:07.519Z,1030.99
2019-02-25T15:39:07.516Z,1030.99
2019-02-25T15:40:09.840Z,1031.03
2019-02-25T15:41:09.160Z,1031.02
2019-02-25T15:42:07.457Z,1031.08
2019-02-25T15:43:10.465Z,1031.05
2019-02-25T15:44:08.980Z,1031.03
2019-02-25T15:45:07.425Z,1031.08
2019-02-25T15:46:07.419Z,1031.08
2019-02-25T15:47:08.618Z,1031.11
2019-02-25T15:48:07.409Z,1031.12
2019-02-25T15:49:07.406Z,1031.12
2019-02-25T15:50:08.070Z,1031.13
2019-02-25T15:51:07.361Z,1031.11
2019-02-25T15:52:07.353Z,1031.12
2019-02-25T15:53:09.435Z,1031.07
2019-02-25T15:54:07.357Z,1031.04
2019-02-25T15:55:07.328Z,1031.06
2019-02-25T15:56:08.092Z,1031.06
2019-02-25T15:57:07.296Z,1031.08
2019-02-25T15:58:08.740Z,1031.09
2019-02-25T15:59:07.295Z,1031.05
2019-02-25T16:00:07.269Z,1031.08
2019-02-25T16:01:07.260Z,1031.04
2019-02-25T16:02:07.726Z,1031.04
2019-02-25T16:03:09.135Z,1031.05
2019-02-25T16:04:09.160Z,1031.03
2019-02-25T16:05:07.972Z,1031.02
2019-02-25T16:06:08.374Z,1031.05
2019-02-25T16:07:08.318Z,1031.03
2019-02-25T16:08:07.200Z,1031.01
2019-02-25T16:09:07.202Z,1031.07
2019-02-25T16:10:09.530Z,1031.03
2019-02-25T16:11:07.173Z,1031.07
2019-02-25T16:12:07.942Z,1031.01
2019-02-25T16:13:11.150Z,1031.09
2019-02-25T16:14:08.155Z,1031.13
2019-02-25T16:15:08.685Z,1031.11
2019-02-25T16:16:07.094Z,1031.09
2019-02-25T16:17:07.095Z,1031.13
2019-02-25T16:18:07.074Z,1031.10
2019-02-25T16:19:07.100Z,1031.15
2019-02-25T16:20:07.056Z,1031.13
2019-02-25T16:21:07.041Z,1031.13
2019-02-25T16:22:09.182Z,1031.14
2019-02-25T16:23:08.114Z,1031.12
2019-02-25T16:24:11.589Z,1031.12
2019-02-25T16:25:09.468Z,1031.10
2019-02-25T16:26:06.989Z,1031.07
2019-02-25T16:27:06.977Z,1031.13
2019-02-25T16:28:08.155Z,1031.10
2019-02-25T16:29:08.930Z,1031.12
2019-02-25T16:30:06.947Z,1031.10
2019-02-25T16:31:08.353Z,1031.13
2019-02-25T16:32:06.942Z,1031.13
2019-02-25T16:33:07.840Z,1031.15
2019-02-25T16:34:06.951Z,1031.19
2019-02-25T16:35:07.271Z,1031.21
2019-02-25T16:36:07.873Z,1031.20
2019-02-25T16:37:06.877Z,1031.21
2019-02-25T16:38:07.331Z,1031.27
2019-02-25T16:39:07.616Z,1031.24
2019-02-25T16:40:08.849Z,1031.30
2019-02-25T16:41:08.523Z,1031.28
2019-02-25T16:42:06.820Z,1031.29
2019-02-25T16:43:07.763Z,1031.31
2019-02-25T16:44:08.683Z,1031.32
2019-02-25T16:45:09.390Z,1031.30
2019-02-25T16:46:08.820Z,1031.31
2019-02-25T16:47:07.905Z,1031.31
2019-02-25T16:48:06.759Z,1031.34
2019-02-25T16:49:06.801Z,1031.31
2019-02-25T16:50:06.766Z,1031.33
2019-02-25T16:51:07.936Z,1031.28
2019-02-25T16:52:06.711Z,1031.29
2019-02-25T16:53:08.556Z,1031.27
2019-02-25T16:54:09.218Z,1031.27
2019-02-25T16:55:06.699Z,1031.27
2019-02-25T16:56:07.901Z,1031.24
2019-02-25T16:57:07.314Z,1031.26
2019-02-25T16:58:10.715Z,1031.28
2019-02-25T16:59:10.888Z,1031.30
2019-02-25T17:00:07.774Z,1031.28
2019-02-25T17:01:07.967Z,1031.29
2019-02-25T17:02:07.107Z,1031.32
2019-02-25T17:03:08.083Z,1031.31
2019-02-25T17:04:06.592Z,1031.31
2019-02-25T17:05:06.593Z,1031.31
2019-02-25T17:06:07.380Z,1031.32
2019-02-25T17:07:06.553Z,1031.30
2019-02-25T17:08:08.160Z,1031.28
2019-02-25T17:09:06.540Z,1031.28
2019-02-25T17:10:06.540Z,1031.33
2019-02-25T17:11:06.512Z,1031.27
2019-02-25T17:12:07.259Z,1031.30
2019-02-25T17:13:08.103Z,1031.32
2019-02-25T17:14:06.475Z,1031.34
2019-02-25T17:15:09.958Z,1031.29
2019-02-25T17:16:17.660Z,1031.33
2019-02-25T17:17:07.454Z,1031.31
2019-02-25T17:18:06.431Z,1031.30
2019-02-25T17:19:06.425Z,1031.32
2019-02-25T17:20:10.229Z,1031.35
2019-02-25T17:21:08.090Z,1031.27
2019-02-25T17:22:06.389Z,1031.39
2019-02-25T17:23:09.420Z,1031.37
2019-02-25T17:24:07.319Z,1031.36
2019-02-25T17:25:09.681Z,1031.37
2019-02-25T17:26:07.812Z,1031.37
2019-02-25T17:27:06.967Z,1031.40
2019-02-25T17:28:08.162Z,1031.38
2019-02-25T17:29:07.316Z,1031.40
2019-02-25T17:30:06.328Z,1031.39
2019-02-25T17:31:07.037Z,1031.37
2019-02-25T17:32:06.281Z,1031.39
2019-02-25T17:33:08.058Z,1031.36
2019-02-25T17:34:06.266Z,1031.38
2019-02-25T17:35:07.414Z,1031.37
2019-02-25T17:36:07.544Z,1031.41
2019-02-25T17:37:07.988Z,1031.38
2019-02-25T17:38:06.223Z,1031.41
2019-02-25T17:39:08.184Z,1031.42
2019-02-25T17:40:06.843Z,1031.38
2019-02-25T17:41:06.677Z,1031.42
2019-02-25T17:42:08.100Z,1031.40
2019-02-25T17:43:06.167Z,1031.46
2019-02-25T17:44:06.154Z,1031.47
2019-02-25T17:45:07.679Z,1031.50
2019-02-25T17:46:07.043Z,1031.55
2019-02-25T17:47:06.720Z,1031.59
2019-02-25T17:48:08.359Z,1031.57
2019-02-25T17:49:07.771Z,1031.59
2019-02-25T17:50:07.011Z,1031.58
2019-02-25T17:51:06.200Z,1031.61
2019-02-25T17:52:06.070Z,1031.61
2019-02-25T17:53:07.456Z,1031.58
2019-02-25T17:54:07.597Z,1031.57
2019-02-25T17:55:06.686Z,1031.59
2019-02-25T17:56:06.052Z,1031.61
2019-02-25T17:57:07.528Z,1031.59
2019-02-25T17:58:06.003Z,1031.59
2019-02-25T17:59:07.560Z,1031.62
2019-02-25T18:00:06.841Z,1031.64
2019-02-25T18:01:05.990Z,1031.65
2019-02-25T18:02:06.661Z,1031.63
2019-02-25T18:03:05.946Z,1031.61
2019-02-25T18:04:06.649Z,1031.58
2019-02-25T18:05:05.930Z,1031.60
2019-02-25T18:06:07.504Z,1031.59
2019-02-25T18:07:05.919Z,1031.59
2019-02-25T18:08:08.102Z,1031.62
2019-02-25T18:09:05.895Z,1031.60
2019-02-25T18:10:07.675Z,1031.59
2019-02-25T18:11:05.881Z,1031.61
2019-02-25T18:12:06.473Z,1031.59
2019-02-25T18:13:08.054Z,1031.63
2019-02-25T18:14:05.839Z,1031.62
2019-02-25T18:15:07.339Z,1031.57
2019-02-25T18:16:05.829Z,1031.60
2019-02-25T18:17:06.145Z,1031.57
2019-02-25T18:18:09.133Z,1031.53
2019-02-25T18:19:06.774Z,1031.54
2019-02-25T18:20:05.762Z,1031.56
2019-02-25T18:21:06.355Z,1031.51
2019-02-25T18:22:05.743Z,1031.53
2019-02-25T18:23:05.739Z,1031.50
2019-02-25T18:24:05.718Z,1031.50